sensor_id;sensor_type;location;lat;lon;timestamp;P1;durP1;ratioP1;P2;durP2;ratioP2
50988;SDS011;37008;52.210;21.112;2022-11-09T00:00:43;118.30;;;61.65;;
50988;SDS011;37008;52.210;21.112;2022-11-09T00:03:09;104.03;;;57.10;;
50988;SDS011;37008;52.210;21.112;2022-11-09T00:05:35;112.82;;;58.38;;
50988;SDS011;37008;52.210;21.112;2022-11-09T00:08:05;103.28;;;55.30;;
50988;SDS011;37008;52.210;21.112;2022-11-09T00:10:35;99.55;;;55.28;;
50988;SDS011;37008;52.210;21.112;2022-11-09T00:13:01;73.47;;;46.35;;
50988;SDS011;37008;52.210;21.112;2022-11-09T00:15:27;94.95;;;52.90;;
50988;SDS011;37008;52.210;21.112;2022-11-09T00:17:53;90.60;;;49.28;;
50988;SDS011;37008;52.210;21.112;2022-11-09T00:20:22;90.80;;;51.38;;
50988;SDS011;37008;52.210;21.112;2022-11-09T00:22:48;94.30;;;52.30;;
50988;SDS011;37008;52.210;21.112;2022-11-09T00:25:14;99.80;;;49.65;;
50988;SDS011;37008;52.210;21.112;2022-11-09T00:27:40;103.63;;;51.65;;
50988;SDS011;37008;52.210;21.112;2022-11-09T00:30:06;98.50;;;51.67;;
50988;SDS011;37008;52.210;21.112;2022-11-09T00:32:34;86.20;;;46.58;;
50988;SDS011;37008;52.210;21.112;2022-11-09T00:35:00;109.43;;;53.28;;
50988;SDS011;37008;52.210;21.112;2022-11-09T00:37:26;78.95;;;45.20;;
50988;SDS011;37008;52.210;21.112;2022-11-09T00:39:54;84.45;;;46.13;;
50988;SDS011;37008;52.210;21.112;2022-11-09T00:42:19;80.07;;;45.13;;
50988;SDS011;37008;52.210;21.112;2022-11-09T00:44:45;89.20;;;49.20;;
50988;SDS011;37008;52.210;21.112;2022-11-09T00:47:10;88.22;;;47.45;;
50988;SDS011;37008;52.210;21.112;2022-11-09T00:49:36;86.90;;;47.22;;
50988;SDS011;37008;52.210;21.112;2022-11-09T00:52:02;83.93;;;46.67;;
50988;SDS011;37008;52.210;21.112;2022-11-09T00:54:28;99.72;;;48.78;;
50988;SDS011;37008;52.210;21.112;2022-11-09T00:56:53;94.43;;;47.78;;
50988;SDS011;37008;52.210;21.112;2022-11-09T00:59:19;96.57;;;48.72;;
50988;SDS011;37008;52.210;21.112;2022-11-09T01:01:47;101.38;;;50.55;;
50988;SDS011;37008;52.210;21.112;2022-11-09T01:04:18;85.25;;;46.80;;
50988;SDS011;37008;52.210;21.112;2022-11-09T01:06:46;98.18;;;50.47;;
50988;SDS011;37008;52.210;21.112;2022-11-09T01:09:12;102.63;;;51.45;;
50988;SDS011;37008;52.210;21.112;2022-11-09T01:11:37;93.90;;;48.67;;
50988;SDS011;37008;52.210;21.112;2022-11-09T01:14:03;92.82;;;47.22;;
50988;SDS011;37008;52.210;21.112;2022-11-09T01:16:28;108.95;;;50.38;;
50988;SDS011;37008;52.210;21.112;2022-11-09T01:18:54;91.07;;;47.47;;
50988;SDS011;37008;52.210;21.112;2022-11-09T01:21:21;91.97;;;46.50;;
50988;SDS011;37008;52.210;21.112;2022-11-09T01:23:47;109.95;;;51.17;;
50988;SDS011;37008;52.210;21.112;2022-11-09T01:26:13;98.72;;;48.17;;
50988;SDS011;37008;52.210;21.112;2022-11-09T01:28:39;90.35;;;47.85;;
50988;SDS011;37008;52.210;21.112;2022-11-09T01:31:07;89.95;;;49.30;;
50988;SDS011;37008;52.210;21.112;2022-11-09T01:33:37;94.93;;;48.30;;
50988;SDS011;37008;52.210;21.112;2022-11-09T01:36:03;96.30;;;48.00;;
50988;SDS011;37008;52.210;21.112;2022-11-09T01:38:31;92.88;;;48.25;;
50988;SDS011;37008;52.210;21.112;2022-11-09T01:40:57;97.57;;;47.30;;
50988;SDS011;37008;52.210;21.112;2022-11-09T01:43:23;87.32;;;44.45;;
50988;SDS011;37008;52.210;21.112;2022-11-09T01:45:54;99.00;;;47.22;;
50988;SDS011;37008;52.210;21.112;2022-11-09T01:49:09;90.75;;;46.28;;
50988;SDS011;37008;52.210;21.112;2022-11-09T01:51:41;91.93;;;44.92;;
50988;SDS011;37008;52.210;21.112;2022-11-09T01:54:10;87.43;;;44.65;;
50988;SDS011;37008;52.210;21.112;2022-11-09T01:56:39;92.35;;;46.35;;
50988;SDS011;37008;52.210;21.112;2022-11-09T01:59:07;85.88;;;44.42;;
50988;SDS011;37008;52.210;21.112;2022-11-09T02:01:37;88.07;;;44.78;;
50988;SDS011;37008;52.210;21.112;2022-11-09T02:04:10;92.05;;;46.25;;
50988;SDS011;37008;52.210;21.112;2022-11-09T02:06:46;76.95;;;43.15;;
50988;SDS011;37008;52.210;21.112;2022-11-09T02:11:48;94.25;;;45.28;;
50988;SDS011;37008;52.210;21.112;2022-11-09T02:14:14;91.07;;;46.55;;
50988;SDS011;37008;52.210;21.112;2022-11-09T02:16:40;98.10;;;47.63;;
50988;SDS011;37008;52.210;21.112;2022-11-09T02:19:06;95.15;;;46.13;;
50988;SDS011;37008;52.210;21.112;2022-11-09T02:21:32;96.45;;;46.60;;
50988;SDS011;37008;52.210;21.112;2022-11-09T02:23:58;94.80;;;44.42;;
50988;SDS011;37008;52.210;21.112;2022-11-09T02:26:35;91.55;;;45.47;;
50988;SDS011;37008;52.210;21.112;2022-11-09T02:29:06;103.55;;;46.85;;
50988;SDS011;37008;52.210;21.112;2022-11-09T02:31:35;94.25;;;46.58;;
50988;SDS011;37008;52.210;21.112;2022-11-09T02:34:05;100.97;;;47.55;;
50988;SDS011;37008;52.210;21.112;2022-11-09T02:36:33;95.95;;;46.45;;
50988;SDS011;37008;52.210;21.112;2022-11-09T02:38:59;87.18;;;44.60;;
50988;SDS011;37008;52.210;21.112;2022-11-09T02:41:25;103.13;;;46.75;;
50988;SDS011;37008;52.210;21.112;2022-11-09T02:43:51;97.57;;;46.45;;
50988;SDS011;37008;52.210;21.112;2022-11-09T02:46:30;92.95;;;45.00;;
50988;SDS011;37008;52.210;21.112;2022-11-09T02:48:57;99.40;;;47.33;;
50988;SDS011;37008;52.210;21.112;2022-11-09T02:51:25;108.05;;;46.70;;
50988;SDS011;37008;52.210;21.112;2022-11-09T02:53:51;99.28;;;46.60;;
50988;SDS011;37008;52.210;21.112;2022-11-09T02:56:16;93.78;;;44.92;;
50988;SDS011;37008;52.210;21.112;2022-11-09T02:58:42;113.80;;;46.92;;
50988;SDS011;37008;52.210;21.112;2022-11-09T03:01:07;102.50;;;44.85;;
50988;SDS011;37008;52.210;21.112;2022-11-09T03:03:33;103.32;;;45.20;;
50988;SDS011;37008;52.210;21.112;2022-11-09T03:05:58;104.45;;;45.90;;
50988;SDS011;37008;52.210;21.112;2022-11-09T03:08:24;87.65;;;43.38;;
50988;SDS011;37008;52.210;21.112;2022-11-09T03:10:50;76.72;;;41.53;;
50988;SDS011;37008;52.210;21.112;2022-11-09T03:13:15;105.57;;;44.38;;
50988;SDS011;37008;52.210;21.112;2022-11-09T03:15:41;112.00;;;46.97;;
50988;SDS011;37008;52.210;21.112;2022-11-09T03:18:06;92.07;;;44.90;;
50988;SDS011;37008;52.210;21.112;2022-11-09T03:20:32;99.72;;;46.17;;
50988;SDS011;37008;52.210;21.112;2022-11-09T03:22:58;102.07;;;47.47;;
50988;SDS011;37008;52.210;21.112;2022-11-09T03:25:25;89.45;;;43.65;;
50988;SDS011;37008;52.210;21.112;2022-11-09T03:27:55;99.53;;;45.78;;
50988;SDS011;37008;52.210;21.112;2022-11-09T03:30:22;103.00;;;46.15;;
50988;SDS011;37008;52.210;21.112;2022-11-09T03:32:48;101.80;;;46.95;;
50988;SDS011;37008;52.210;21.112;2022-11-09T03:35:13;97.50;;;45.33;;
50988;SDS011;37008;52.210;21.112;2022-11-09T03:37:39;94.25;;;44.15;;
50988;SDS011;37008;52.210;21.112;2022-11-09T03:40:04;99.03;;;44.85;;
50988;SDS011;37008;52.210;21.112;2022-11-09T03:42:30;95.47;;;44.60;;
50988;SDS011;37008;52.210;21.112;2022-11-09T03:44:56;97.70;;;45.15;;
50988;SDS011;37008;52.210;21.112;2022-11-09T03:47:22;102.65;;;45.35;;
50988;SDS011;37008;52.210;21.112;2022-11-09T03:49:47;112.80;;;47.08;;
50988;SDS011;37008;52.210;21.112;2022-11-09T03:52:13;105.38;;;45.10;;
50988;SDS011;37008;52.210;21.112;2022-11-09T03:54:38;101.28;;;44.83;;
50988;SDS011;37008;52.210;21.112;2022-11-09T03:57:04;94.15;;;45.42;;
50988;SDS011;37008;52.210;21.112;2022-11-09T03:59:29;100.70;;;44.58;;
50988;SDS011;37008;52.210;21.112;2022-11-09T04:01:55;103.53;;;47.00;;
50988;SDS011;37008;52.210;21.112;2022-11-09T04:04:20;116.60;;;46.88;;
50988;SDS011;37008;52.210;21.112;2022-11-09T04:06:46;88.32;;;43.17;;
50988;SDS011;37008;52.210;21.112;2022-11-09T04:09:11;116.97;;;47.13;;
50988;SDS011;37008;52.210;21.112;2022-11-09T04:11:37;96.18;;;43.42;;
50988;SDS011;37008;52.210;21.112;2022-11-09T04:14:03;98.38;;;43.63;;
50988;SDS011;37008;52.210;21.112;2022-11-09T04:16:28;93.05;;;42.80;;
50988;SDS011;37008;52.210;21.112;2022-11-09T04:18:54;105.20;;;46.33;;
50988;SDS011;37008;52.210;21.112;2022-11-09T04:21:19;90.20;;;43.80;;
50988;SDS011;37008;52.210;21.112;2022-11-09T04:23:46;92.10;;;44.05;;
50988;SDS011;37008;52.210;21.112;2022-11-09T04:26:12;100.43;;;45.00;;
50988;SDS011;37008;52.210;21.112;2022-11-09T04:28:37;108.43;;;46.13;;
50988;SDS011;37008;52.210;21.112;2022-11-09T04:31:03;109.05;;;45.53;;
50988;SDS011;37008;52.210;21.112;2022-11-09T04:33:29;96.05;;;42.72;;
50988;SDS011;37008;52.210;21.112;2022-11-09T04:35:59;93.78;;;42.42;;
50988;SDS011;37008;52.210;21.112;2022-11-09T04:38:26;107.43;;;46.13;;
50988;SDS011;37008;52.210;21.112;2022-11-09T04:40:51;92.80;;;41.50;;
50988;SDS011;37008;52.210;21.112;2022-11-09T04:43:17;113.38;;;45.70;;
50988;SDS011;37008;52.210;21.112;2022-11-09T04:45:43;107.03;;;45.35;;
50988;SDS011;37008;52.210;21.112;2022-11-09T04:48:09;102.30;;;45.75;;
50988;SDS011;37008;52.210;21.112;2022-11-09T04:50:36;116.72;;;47.95;;
50988;SDS011;37008;52.210;21.112;2022-11-09T04:53:06;106.55;;;46.00;;
50988;SDS011;37008;52.210;21.112;2022-11-09T04:55:33;103.50;;;46.38;;
50988;SDS011;37008;52.210;21.112;2022-11-09T04:57:59;121.53;;;49.42;;
50988;SDS011;37008;52.210;21.112;2022-11-09T05:00:25;112.97;;;47.22;;
50988;SDS011;37008;52.210;21.112;2022-11-09T05:02:51;110.30;;;48.97;;
50988;SDS011;37008;52.210;21.112;2022-11-09T05:05:17;119.18;;;52.40;;
50988;SDS011;37008;52.210;21.112;2022-11-09T05:07:42;138.60;;;56.63;;
50988;SDS011;37008;52.210;21.112;2022-11-09T05:10:08;115.22;;;52.20;;
50988;SDS011;37008;52.210;21.112;2022-11-09T05:12:33;149.25;;;60.38;;
50988;SDS011;37008;52.210;21.112;2022-11-09T05:14:59;125.13;;;57.60;;
50988;SDS011;37008;52.210;21.112;2022-11-09T05:17:25;115.57;;;54.00;;
50988;SDS011;37008;52.210;21.112;2022-11-09T05:19:50;144.10;;;63.63;;
50988;SDS011;37008;52.210;21.112;2022-11-09T05:22:16;150.77;;;64.45;;
50988;SDS011;37008;52.210;21.112;2022-11-09T05:25:00;160.43;;;63.67;;
50988;SDS011;37008;52.210;21.112;2022-11-09T05:27:25;134.75;;;58.65;;
50988;SDS011;37008;52.210;21.112;2022-11-09T05:29:51;134.13;;;55.75;;
50988;SDS011;37008;52.210;21.112;2022-11-09T05:32:17;127.43;;;58.30;;
50988;SDS011;37008;52.210;21.112;2022-11-09T05:34:42;152.63;;;61.63;;
50988;SDS011;37008;52.210;21.112;2022-11-09T05:37:08;173.95;;;63.47;;
50988;SDS011;37008;52.210;21.112;2022-11-09T05:39:33;144.65;;;58.97;;
50988;SDS011;37008;52.210;21.112;2022-11-09T05:41:59;133.43;;;58.70;;
50988;SDS011;37008;52.210;21.112;2022-11-09T05:44:24;162.15;;;61.15;;
50988;SDS011;37008;52.210;21.112;2022-11-09T05:46:50;138.98;;;58.25;;
50988;SDS011;37008;52.210;21.112;2022-11-09T05:49:15;137.65;;;56.95;;
50988;SDS011;37008;52.210;21.112;2022-11-09T05:51:41;139.32;;;55.28;;
50988;SDS011;37008;52.210;21.112;2022-11-09T05:54:07;139.82;;;53.50;;
50988;SDS011;37008;52.210;21.112;2022-11-09T05:56:32;143.93;;;56.53;;
50988;SDS011;37008;52.210;21.112;2022-11-09T05:58:58;147.27;;;55.75;;
50988;SDS011;37008;52.210;21.112;2022-11-09T06:01:24;130.00;;;53.40;;
50988;SDS011;37008;52.210;21.112;2022-11-09T06:03:52;142.07;;;53.72;;
50988;SDS011;37008;52.210;21.112;2022-11-09T06:06:18;126.60;;;51.00;;
50988;SDS011;37008;52.210;21.112;2022-11-09T06:08:43;120.57;;;48.60;;
50988;SDS011;37008;52.210;21.112;2022-11-09T06:11:10;114.15;;;49.33;;
50988;SDS011;37008;52.210;21.112;2022-11-09T06:13:36;135.70;;;50.08;;
50988;SDS011;37008;52.210;21.112;2022-11-09T06:16:03;150.93;;;53.25;;
50988;SDS011;37008;52.210;21.112;2022-11-09T06:18:30;136.52;;;52.40;;
50988;SDS011;37008;52.210;21.112;2022-11-09T06:20:58;136.73;;;51.08;;
50988;SDS011;37008;52.210;21.112;2022-11-09T06:23:25;134.95;;;51.35;;
50988;SDS011;37008;52.210;21.112;2022-11-09T06:25:52;138.70;;;51.47;;
50988;SDS011;37008;52.210;21.112;2022-11-09T06:28:20;120.13;;;52.60;;
50988;SDS011;37008;52.210;21.112;2022-11-09T06:30:46;137.10;;;55.95;;
50988;SDS011;37008;52.210;21.112;2022-11-09T06:33:11;157.35;;;57.00;;
50988;SDS011;37008;52.210;21.112;2022-11-09T06:35:37;148.68;;;54.03;;
50988;SDS011;37008;52.210;21.112;2022-11-09T06:38:03;129.77;;;53.38;;
50988;SDS011;37008;52.210;21.112;2022-11-09T06:40:28;148.43;;;57.08;;
50988;SDS011;37008;52.210;21.112;2022-11-09T06:42:57;141.95;;;57.60;;
50988;SDS011;37008;52.210;21.112;2022-11-09T06:45:25;144.35;;;54.17;;
50988;SDS011;37008;52.210;21.112;2022-11-09T06:47:56;135.32;;;58.40;;
50988;SDS011;37008;52.210;21.112;2022-11-09T06:50:22;141.43;;;56.63;;
50988;SDS011;37008;52.210;21.112;2022-11-09T06:52:48;141.65;;;58.45;;
50988;SDS011;37008;52.210;21.112;2022-11-09T06:55:13;161.82;;;71.15;;
50988;SDS011;37008;52.210;21.112;2022-11-09T06:57:39;150.70;;;60.15;;
50988;SDS011;37008;52.210;21.112;2022-11-09T07:00:05;190.63;;;89.90;;
50988;SDS011;37008;52.210;21.112;2022-11-09T07:02:32;139.02;;;61.35;;
50988;SDS011;37008;52.210;21.112;2022-11-09T07:04:57;171.38;;;69.68;;
50988;SDS011;37008;52.210;21.112;2022-11-09T07:07:23;150.10;;;68.32;;
50988;SDS011;37008;52.210;21.112;2022-11-09T07:09:49;138.55;;;65.70;;
50988;SDS011;37008;52.210;21.112;2022-11-09T07:12:14;122.18;;;59.40;;
50988;SDS011;37008;52.210;21.112;2022-11-09T07:14:40;135.63;;;61.55;;
50988;SDS011;37008;52.210;21.112;2022-11-09T07:17:05;149.38;;;59.85;;
50988;SDS011;37008;52.210;21.112;2022-11-09T07:19:34;145.65;;;64.22;;
50988;SDS011;37008;52.210;21.112;2022-11-09T07:22:02;124.93;;;52.50;;
50988;SDS011;37008;52.210;21.112;2022-11-09T07:24:28;118.93;;;59.55;;
50988;SDS011;37008;52.210;21.112;2022-11-09T07:26:53;161.32;;;71.68;;
50988;SDS011;37008;52.210;21.112;2022-11-09T07:29:19;177.75;;;89.90;;
50988;SDS011;37008;52.210;21.112;2022-11-09T07:31:47;143.32;;;68.75;;
50988;SDS011;37008;52.210;21.112;2022-11-09T07:34:13;127.25;;;64.43;;
50988;SDS011;37008;52.210;21.112;2022-11-09T07:36:39;136.25;;;68.43;;
50988;SDS011;37008;52.210;21.112;2022-11-09T07:39:07;136.63;;;65.35;;
50988;SDS011;37008;52.210;21.112;2022-11-09T07:41:32;107.95;;;52.08;;
50988;SDS011;37008;52.210;21.112;2022-11-09T07:43:58;114.65;;;59.22;;
50988;SDS011;37008;52.210;21.112;2022-11-09T07:46:27;91.75;;;46.05;;
50988;SDS011;37008;52.210;21.112;2022-11-09T07:48:53;97.30;;;49.38;;
50988;SDS011;37008;52.210;21.112;2022-11-09T07:51:19;111.40;;;49.75;;
50988;SDS011;37008;52.210;21.112;2022-11-09T07:53:44;101.97;;;50.72;;
50988;SDS011;37008;52.210;21.112;2022-11-09T07:56:10;108.07;;;52.40;;
50988;SDS011;37008;52.210;21.112;2022-11-09T07:58:36;119.63;;;53.75;;
50988;SDS011;37008;52.210;21.112;2022-11-09T08:01:06;124.05;;;57.47;;
50988;SDS011;37008;52.210;21.112;2022-11-09T08:03:34;95.95;;;49.78;;
50988;SDS011;37008;52.210;21.112;2022-11-09T08:06:00;140.38;;;71.15;;
50988;SDS011;37008;52.210;21.112;2022-11-09T08:08:26;144.30;;;67.47;;
50988;SDS011;37008;52.210;21.112;2022-11-09T08:10:51;98.32;;;49.65;;
50988;SDS011;37008;52.210;21.112;2022-11-09T08:13:18;98.63;;;52.00;;
50988;SDS011;37008;52.210;21.112;2022-11-09T08:15:44;109.13;;;60.08;;
50988;SDS011;37008;52.210;21.112;2022-11-09T08:18:13;88.45;;;52.15;;
50988;SDS011;37008;52.210;21.112;2022-11-09T08:20:41;109.63;;;58.22;;
50988;SDS011;37008;52.210;21.112;2022-11-09T08:23:09;96.57;;;53.58;;
50988;SDS011;37008;52.210;21.112;2022-11-09T08:25:39;165.75;;;80.20;;
50988;SDS011;37008;52.210;21.112;2022-11-09T08:28:05;152.85;;;74.30;;
50988;SDS011;37008;52.210;21.112;2022-11-09T08:30:31;118.57;;;58.53;;
50988;SDS011;37008;52.210;21.112;2022-11-09T08:32:58;109.45;;;58.42;;
50988;SDS011;37008;52.210;21.112;2022-11-09T08:35:25;103.43;;;55.33;;
50988;SDS011;37008;52.210;21.112;2022-11-09T08:37:51;80.50;;;48.47;;
50988;SDS011;37008;52.210;21.112;2022-11-09T08:40:20;83.03;;;45.67;;
50988;SDS011;37008;52.210;21.112;2022-11-09T08:42:47;79.68;;;45.28;;
50988;SDS011;37008;52.210;21.112;2022-11-09T08:45:13;80.03;;;45.20;;
50988;SDS011;37008;52.210;21.112;2022-11-09T08:47:39;86.72;;;48.78;;
50988;SDS011;37008;52.210;21.112;2022-11-09T08:50:06;81.05;;;46.97;;
50988;SDS011;37008;52.210;21.112;2022-11-09T08:52:33;70.97;;;40.22;;
50988;SDS011;37008;52.210;21.112;2022-11-09T08:54:59;69.95;;;43.10;;
50988;SDS011;37008;52.210;21.112;2022-11-09T08:57:25;64.95;;;40.40;;
50988;SDS011;37008;52.210;21.112;2022-11-09T08:59:51;61.50;;;39.42;;
50988;SDS011;37008;52.210;21.112;2022-11-09T09:02:19;64.78;;;39.78;;
50988;SDS011;37008;52.210;21.112;2022-11-09T09:04:45;63.92;;;37.92;;
50988;SDS011;37008;52.210;21.112;2022-11-09T09:07:11;49.67;;;33.75;;
50988;SDS011;37008;52.210;21.112;2022-11-09T09:09:37;59.63;;;36.30;;
50988;SDS011;37008;52.210;21.112;2022-11-09T09:12:03;60.80;;;38.53;;
50988;SDS011;37008;52.210;21.112;2022-11-09T09:14:30;59.05;;;35.53;;
50988;SDS011;37008;52.210;21.112;2022-11-09T09:16:56;52.28;;;33.38;;
50988;SDS011;37008;52.210;21.112;2022-11-09T09:19:22;52.90;;;33.33;;
50988;SDS011;37008;52.210;21.112;2022-11-09T09:21:47;53.22;;;33.08;;
50988;SDS011;37008;52.210;21.112;2022-11-09T09:24:13;52.22;;;34.38;;
50988;SDS011;37008;52.210;21.112;2022-11-09T09:26:39;50.65;;;34.35;;
50988;SDS011;37008;52.210;21.112;2022-11-09T09:29:04;48.03;;;31.25;;
50988;SDS011;37008;52.210;21.112;2022-11-09T09:31:30;42.83;;;29.63;;
50988;SDS011;37008;52.210;21.112;2022-11-09T09:33:56;45.58;;;30.98;;
50988;SDS011;37008;52.210;21.112;2022-11-09T09:36:22;49.15;;;31.02;;
50988;SDS011;37008;52.210;21.112;2022-11-09T09:38:54;40.83;;;29.98;;
50988;SDS011;37008;52.210;21.112;2022-11-09T09:41:25;44.95;;;32.05;;
50988;SDS011;37008;52.210;21.112;2022-11-09T09:44:06;47.92;;;31.60;;
50988;SDS011;37008;52.210;21.112;2022-11-09T09:46:47;38.85;;;28.00;;
50988;SDS011;37008;52.210;21.112;2022-11-09T09:49:26;42.38;;;29.30;;
50988;SDS011;37008;52.210;21.112;2022-11-09T09:54:49;40.92;;;29.63;;
50988;SDS011;37008;52.210;21.112;2022-11-09T09:57:30;40.75;;;27.23;;
50988;SDS011;37008;52.210;21.112;2022-11-09T09:59:59;43.85;;;28.42;;
50988;SDS011;37008;52.210;21.112;2022-11-09T10:02:27;42.05;;;29.25;;
50988;SDS011;37008;52.210;21.112;2022-11-09T10:04:55;44.60;;;30.15;;
50988;SDS011;37008;52.210;21.112;2022-11-09T10:10:09;40.13;;;28.60;;
50988;SDS011;37008;52.210;21.112;2022-11-09T10:26:25;57.25;;;29.85;;
50988;SDS011;37008;52.210;21.112;2022-11-09T10:29:07;57.92;;;28.23;;
50988;SDS011;37008;52.210;21.112;2022-11-09T10:31:46;64.10;;;28.35;;
50988;SDS011;37008;52.210;21.112;2022-11-09T10:34:18;40.85;;;28.17;;
50988;SDS011;37008;52.210;21.112;2022-11-09T10:37:09;53.53;;;32.25;;
50988;SDS011;37008;52.210;21.112;2022-11-09T10:39:57;47.85;;;30.85;;
50988;SDS011;37008;52.210;21.112;2022-11-09T10:42:48;46.08;;;29.13;;
50988;SDS011;37008;52.210;21.112;2022-11-09T10:45:24;48.88;;;28.55;;
50988;SDS011;37008;52.210;21.112;2022-11-09T10:47:56;56.35;;;29.02;;
50988;SDS011;37008;52.210;21.112;2022-11-09T10:52:50;44.53;;;30.48;;
50988;SDS011;37008;52.210;21.112;2022-11-09T10:55:23;41.42;;;28.90;;
50988;SDS011;37008;52.210;21.112;2022-11-09T10:57:52;37.92;;;26.92;;
50988;SDS011;37008;52.210;21.112;2022-11-09T11:00:21;41.88;;;26.13;;
50988;SDS011;37008;52.210;21.112;2022-11-09T11:02:46;39.80;;;27.02;;
50988;SDS011;37008;52.210;21.112;2022-11-09T11:07:52;38.60;;;25.45;;
50988;SDS011;37008;52.210;21.112;2022-11-09T11:10:18;43.83;;;27.33;;
50988;SDS011;37008;52.210;21.112;2022-11-09T11:15:22;37.03;;;27.27;;
50988;SDS011;37008;52.210;21.112;2022-11-09T11:17:49;38.05;;;27.38;;
50988;SDS011;37008;52.210;21.112;2022-11-09T11:20:25;40.37;;;27.50;;
50988;SDS011;37008;52.210;21.112;2022-11-09T11:23:15;38.70;;;27.13;;
50988;SDS011;37008;52.210;21.112;2022-11-09T11:28:43;37.17;;;25.45;;
50988;SDS011;37008;52.210;21.112;2022-11-09T11:33:40;36.53;;;25.35;;
50988;SDS011;37008;52.210;21.112;2022-11-09T11:36:15;36.67;;;25.02;;
50988;SDS011;37008;52.210;21.112;2022-11-09T11:38:49;37.10;;;26.58;;
50988;SDS011;37008;52.210;21.112;2022-11-09T11:41:20;39.42;;;26.60;;
50988;SDS011;37008;52.210;21.112;2022-11-09T11:46:59;37.33;;;23.92;;
50988;SDS011;37008;52.210;21.112;2022-11-09T11:50:30;32.50;;;23.17;;
50988;SDS011;37008;52.210;21.112;2022-11-09T11:55:36;33.15;;;24.55;;
50988;SDS011;37008;52.210;21.112;2022-11-09T11:58:29;40.47;;;28.08;;
50988;SDS011;37008;52.210;21.112;2022-11-09T12:04:06;31.55;;;23.55;;
50988;SDS011;37008;52.210;21.112;2022-11-09T12:06:47;36.92;;;23.80;;
50988;SDS011;37008;52.210;21.112;2022-11-09T12:17:56;43.05;;;27.98;;
50988;SDS011;37008;52.210;21.112;2022-11-09T12:23:37;33.70;;;24.73;;
50988;SDS011;37008;52.210;21.112;2022-11-09T12:31:43;44.90;;;31.17;;
50988;SDS011;37008;52.210;21.112;2022-11-09T12:34:34;36.33;;;26.15;;
50988;SDS011;37008;52.210;21.112;2022-11-09T12:37:12;31.27;;;23.92;;
50988;SDS011;37008;52.210;21.112;2022-11-09T12:39:44;31.17;;;22.75;;
50988;SDS011;37008;52.210;21.112;2022-11-09T12:42:19;34.30;;;23.17;;
50988;SDS011;37008;52.210;21.112;2022-11-09T12:45:04;32.97;;;24.13;;
50988;SDS011;37008;52.210;21.112;2022-11-09T12:47:39;31.65;;;23.38;;
50988;SDS011;37008;52.210;21.112;2022-11-09T12:50:17;30.13;;;23.15;;
50988;SDS011;37008;52.210;21.112;2022-11-09T12:52:44;30.38;;;24.35;;
50988;SDS011;37008;52.210;21.112;2022-11-09T12:55:16;31.85;;;23.65;;
50988;SDS011;37008;52.210;21.112;2022-11-09T12:57:45;30.60;;;23.50;;
50988;SDS011;37008;52.210;21.112;2022-11-09T13:03:03;32.35;;;23.10;;
50988;SDS011;37008;52.210;21.112;2022-11-09T13:05:37;36.92;;;24.63;;
50988;SDS011;37008;52.210;21.112;2022-11-09T13:08:03;35.40;;;25.10;;
50988;SDS011;37008;52.210;21.112;2022-11-09T13:10:32;34.15;;;23.42;;
50988;SDS011;37008;52.210;21.112;2022-11-09T13:15:32;28.05;;;22.23;;
50988;SDS011;37008;52.210;21.112;2022-11-09T13:18:00;31.80;;;24.35;;
50988;SDS011;37008;52.210;21.112;2022-11-09T13:20:37;29.40;;;23.10;;
50988;SDS011;37008;52.210;21.112;2022-11-09T13:23:22;33.10;;;23.13;;
50988;SDS011;37008;52.210;21.112;2022-11-09T13:25:56;35.47;;;23.98;;
50988;SDS011;37008;52.210;21.112;2022-11-09T13:30:57;41.55;;;24.77;;
50988;SDS011;37008;52.210;21.112;2022-11-09T13:33:34;41.03;;;26.80;;
50988;SDS011;37008;52.210;21.112;2022-11-09T13:38:32;42.83;;;29.27;;
50988;SDS011;37008;52.210;21.112;2022-11-09T13:41:00;41.15;;;28.02;;
50988;SDS011;37008;52.210;21.112;2022-11-09T13:46:01;35.25;;;24.17;;
50988;SDS011;37008;52.210;21.112;2022-11-09T13:48:37;33.30;;;21.85;;
50988;SDS011;37008;52.210;21.112;2022-11-09T13:58:59;50.75;;;38.72;;
50988;SDS011;37008;52.210;21.112;2022-11-09T14:01:50;45.28;;;30.13;;
50988;SDS011;37008;52.210;21.112;2022-11-09T14:07:03;39.75;;;26.30;;
50988;SDS011;37008;52.210;21.112;2022-11-09T14:18:31;45.20;;;28.75;;
50988;SDS011;37008;52.210;21.112;2022-11-09T14:23:43;47.90;;;28.83;;
50988;SDS011;37008;52.210;21.112;2022-11-09T14:26:15;101.28;;;52.60;;
50988;SDS011;37008;52.210;21.112;2022-11-09T14:28:46;137.43;;;62.10;;
50988;SDS011;37008;52.210;21.112;2022-11-09T14:31:25;77.82;;;41.05;;
50988;SDS011;37008;52.210;21.112;2022-11-09T14:33:59;132.88;;;61.72;;
50988;SDS011;37008;52.210;21.112;2022-11-09T14:36:27;78.88;;;41.60;;
50988;SDS011;37008;52.210;21.112;2022-11-09T14:38:58;115.38;;;54.88;;
50988;SDS011;37008;52.210;21.112;2022-11-09T14:41:42;64.78;;;36.58;;
50988;SDS011;37008;52.210;21.112;2022-11-09T14:44:30;195.00;;;95.75;;
50988;SDS011;37008;52.210;21.112;2022-11-09T14:47:04;111.10;;;56.00;;
50988;SDS011;37008;52.210;21.112;2022-11-09T14:49:37;121.78;;;58.95;;
50988;SDS011;37008;52.210;21.112;2022-11-09T14:52:11;92.55;;;47.92;;
50988;SDS011;37008;52.210;21.112;2022-11-09T14:54:45;137.20;;;65.70;;
50988;SDS011;37008;52.210;21.112;2022-11-09T14:57:13;97.13;;;51.47;;
50988;SDS011;37008;52.210;21.112;2022-11-09T14:59:40;112.35;;;56.75;;
50988;SDS011;37008;52.210;21.112;2022-11-09T15:02:10;104.75;;;54.78;;
50988;SDS011;37008;52.210;21.112;2022-11-09T15:07:24;42.90;;;28.15;;
50988;SDS011;37008;52.210;21.112;2022-11-09T15:09:54;60.80;;;40.90;;
50988;SDS011;37008;52.210;21.112;2022-11-09T15:12:32;47.03;;;32.15;;
50988;SDS011;37008;52.210;21.112;2022-11-09T15:15:16;58.10;;;39.92;;
50988;SDS011;37008;52.210;21.112;2022-11-09T15:18:02;48.20;;;32.10;;
50988;SDS011;37008;52.210;21.112;2022-11-09T15:20:30;43.85;;;29.65;;
50988;SDS011;37008;52.210;21.112;2022-11-09T15:22:58;115.68;;;77.80;;
50988;SDS011;37008;52.210;21.112;2022-11-09T15:33:20;45.30;;;31.63;;
50988;SDS011;37008;52.210;21.112;2022-11-09T15:35:56;56.97;;;41.10;;
50988;SDS011;37008;52.210;21.112;2022-11-09T15:38:36;55.42;;;37.75;;
50988;SDS011;37008;52.210;21.112;2022-11-09T15:41:24;57.90;;;38.03;;
50988;SDS011;37008;52.210;21.112;2022-11-09T15:43:49;66.63;;;45.90;;
50988;SDS011;37008;52.210;21.112;2022-11-09T15:46:16;70.38;;;46.78;;
50988;SDS011;37008;52.210;21.112;2022-11-09T15:48:48;68.75;;;45.15;;
50988;SDS011;37008;52.210;21.112;2022-11-09T15:51:17;75.43;;;51.00;;
50988;SDS011;37008;52.210;21.112;2022-11-09T15:53:49;95.20;;;60.30;;
50988;SDS011;37008;52.210;21.112;2022-11-09T15:56:19;89.78;;;56.72;;
50988;SDS011;37008;52.210;21.112;2022-11-09T15:58:48;84.40;;;54.05;;
50988;SDS011;37008;52.210;21.112;2022-11-09T16:01:16;94.28;;;59.25;;